TAF France - 12 Dec 2017 - 2347 UTC - RocketRoute WX - rrwx.com
LFLB 122045Z 1220/1312 VRB02KT 9999 BKN015 BECMG 1308/1310 18010KT CAVOK LFBZ 121700Z 1218/1318 23005KT 9999 SCT035 TEMPO 1309/1312 21015G25KT -RA BKN030 LFLC 122000Z 1221/1321 18010KT CAVOK TEMPO 1309/1312 -RA BKN050 BKN090 TEMPO 1309/1315 18015G25KT BECMG 1316/1318 18015G25KT BKN050 TEMPO 1318/1321 -RA OVC040 PROB30 TEMPO 1318/1321 21020G40KT LFSB 121700Z 1218/1318 20004KT 9999 FEW030 BECMG 1312/1314 22010KT BKN030 TEMPO 1314/1318 -RA LFBL 121700Z 1218/1318 16005KT 9999 BKN040 BECMG 1219/1221 BKN008 OVC025 BECMG 1221/1224 OVC004 TEMPO 1301/1306 3000 BR OVC002 TEMPO 1306/1312 3000 -RADZ OVC002 BECMG 1312/1314 OVC002 LFBI   LFBO 121700Z 1218/1324 VRB03KT 9999 FEW030 TEMPO 1316/1320 25010KT BECMG 1320/1322 26012KT LFRB AMD 122139Z 1221/1324 21012KT 9999 OVC010 TEMPO 1221/1302 24015G25KT 3000 -RA OVC003 BECMG 1302/1304 28008KT BKN020 BECMG 1309/1312 21015G25KT 3000 RA SCT003 OVC005 BECMG 1315/1317 27020G30KT 9999 NSW BKN025 TEMPO 1317/1324 27025G40KT 3000 SHRA BKN015TCU LFLY 122005Z 1220/1318 VRB02KT 6000 NSC TEMPO 1220/1308 3000 BR PROB30 TEMPO 1222/1308 0800 FG VV/// BECMG 1308/1310 18010KT TEMPO 1312/1314 -RA BKN040 OVC060 BECMG 1314/1315 18015G25KT BECMG 1316/1318 18018G30KT LFRK 121400Z 1215/1224 21008KT 9999 SCT040 BECMG 1218/1221 20013KT TEMPO 1222/1224 20015G25KT LFMN 122000Z 1221/1403 32010KT CAVOK BECMG 1309/1311 20008KT TEMPO 1318/1403 24017G30KT LFST AMD 121907Z 1219/1318 20008KT 9999 SCT040 PROB30 TEMPO 1219/1221 4000 SHRASN BECMG 1312/1314 OVC030 TEMPO 1314/1318 -RA PROB40 TEMPO 1314/1318 18015G25KT LFTW 121400Z 1218/1315 33005KT CAVOK LFRH 121700Z 1218/1318 23012KT 9999 BKN035 BECMG 1221/1223 22015G25KT 4000 RA SCT010 OVC015 TEMPO 1300/1302 22020G32KT OVC009 BECMG 1303/1304 28012KT 9999 NSW SCT020 BECMG 1310/1311 24015G30KT BECMG 1312/1313 22020G35KT 3000 RA SCT006 OVC010 TEMPO 1314/1315 25025G40KT 1500 +RA OVC005 BECMG 1315/1316 28015G30KT 9999 NSW BKN025 LFPB 121700Z 1219/1318 20005KT 9999 SCT020 BECMG 1222/1224 BKN009 PROB40 TEMPO 1300/1303 BKN004 BECMG 1303/1305 19015G25KT 4000 -RA TEMPO 1305/1309 3000 RA BKN004 PROB40 TEMPO 1306/1310 19015G30KT TEMPO 1315/1318 3000 RA BKN005 PROB40 1316/1318 21020G30KT LFQQ 121700Z 1218/1324 22005KT CAVOK BECMG 1222/1224 20015KT BECMG 1303/1305 3000 RADZ OVC007 TEMPO 1305/1310 20020G35KT PROB30 TEMPO 1305/1307 1200 RASN OVC003 BECMG 1307/1309 9999 NSW TEMPO 1309/1320 2000 RADZ OVC003 TEMPO 1315/1320 20020G40KT FM132000 27015G25KT 9999 BKN030 LFAT 121400Z 1215/1224 24007KT 9999 BKN030 PROB30 TEMPO 1219/1224 4000 SHRA LFMT 122000Z 1221/1321 VRB05KT CAVOK TEMPO 1318/1321 BKN014 LFBD 120500Z 1206/1312 VRB03KT CAVOK TEMPO 1206/1209 1500 BCFG BECMG 1304/1306 18013KT TEMPO 1223/1306 1500 BCFG BECMG 1306/1308 BKN020 TEMPO 1308/1312 -RA BKN012 TX09/1215Z TN01/1206Z LFRS 121700Z 1218/1324 22003KT CAVOK PROB30 TEMPO 1218/1220 -SHRA SCT035TCU BECMG 1302/1304 5000 -RA BKN010 TEMPO 1304/1306 25015G25KT 3000 RA BKN005 TEMPO 1306/1312 24008KT 7000 -RA SCT010 BKN020 BECMG 1310/1312 24015KT 5000 -RA BKN010 TEMPO 1312/1318 RA BKN007 BKN030 BECMG 1315/1318 27020G35KT LFKJ 122000Z 1221/1321 VRB05KT 9999 SCT040 OVC060 TEMPO 1221/1224 4000 RA BKN010 FEW025TCU BECMG 1310/1312 30010KT LFPG 121700Z 1219/1324 20005KT 9999 SCT020 BECMG 1222/1224 BKN009 PROB40 TEMPO 1300/1303 BKN004 BECMG 1303/1305 19015G25KT 4000 -RA TEMPO 1305/1309 3000 RA BKN004 PROB40 TEMPO 1306/1310 19015G30KT TEMPO 1315/1320 3000 RA BKN005 PROB40 1316/1324 21020G30KT TX08/1321Z TN02/1222Z LFPO   LFRD 121700Z 1218/1318 18010KT 9999 BKN030 BECMG 1222/1224 19015G25KT 5000 RA BECMG 1300/1302 BKN010 TEMPO 1301/1304 2000 BKN003 BECMG 1303/1305 24012KT 9999 NSW SCT020 BECMG 1309/1312 22015G25KT BECMG 1311/1313 5000 RA BKN010 BECMG 1316/1318 26015G28KT 9999 NSW BKN025 LFKB 122000Z 1221/1321 VRB05KT 9999 SCT030 BKN070 OVC110 BECMG 1301/1303 23010KT TX15/1313Z TN08/1304Z LFML 122000Z 1221/1403 33012KT CAVOK BECMG 1306/1309 VRB05KT TEMPO 1318/1403 BKN035 TX09/1315Z TN02/1306Z LFMP AMD 121811Z 1218/1315 32010KT CAVOK BECMG 1220/1222 VRB03KT LFLL AMD 122109Z 1221/1324 VRB05KT CAVOK PROB40 TEMPO 1221/1307 2000 BR PROB30 TEMPO 1221/1306 0800 BCFG BECMG 1306/1309 18010KT BECMG 1312/1315 18015G25KT -RA PROB30 TEMPO 1318/1324 18025G40KT LFRN 121700Z 1218/1318 17005KT 9999 BKN030 BECMG 1220/1222 18010KT BECMG 1223/1301 5000 RA BECMG 1301/1303 BKN010 TEMPO 1302/1305 22015G25KT 2000 BKN003 BECMG 1304/1306 25010KT 9999 NSW SCT020 BECMG 1309/1312 22013KT BECMG 1310/1313 5000 RA BKN010 BECMG 1316/1318 9999 NSW BKN025 TEMPO 1315/1318 28015G25KT LFOB 121700Z 1218/1318 20005KT CAVOK BECMG 1302/1305 3000 RADZ OVC007 TEMPO 1305/1308 24020G30KT OVC003 PROB30 TEMPO 1305/1308 1200 RASN BECMG 1308/1310 9999 NSW TEMPO 1310/1318 2000 RADZ OVC003 TEMPO 1314/1318 24020G35KT LFPN   LFOT 121700Z 1218/1318 20006KT CAVOK BECMG 1302/1304 BKN012 TEMPO 1304/1309 20015G30KT 3000 RA BKN006 TEMPO 1309/1311 BKN006 TEMPO 1315/1318 3000 RA BKN004 TEMPO 1317/1318 21015G30KT

RocketRoute WX - rrwx.com weather for pilots